Daegu Air Base
RKTN : now visible

Airfield :











YOU CAN JOIN US ON...

 
LOGIN :

Register | Disclaimer

   EN    FR    IT 

 









Legend :    VFR   Marginal VFR   IFR   Intensive IFR   Very Intensive IFR
Visi :
Ceiling :
>= 8 km
>= 3000ft
5 to 8 km
1000 to 3000 ft
1500m to 5 km
500 to 1000 ft
800 to 1500m
200 to 500 ft
< 800m
< 200 ft
Symbols :   Thunderstorms  Fog  Heavy snow  Heavy precipitations  Wind > 20 kt







- Airport Elevation : 116 ft
- IATA code : TAE


RKTN - Daegu Air Base

CURRENT METAR :
  • 191600Z 15004KT 9999 OVC030 11/03 Q1018

EXPIRED METARs :
  • 191500Z 12004KT 9999 OVC035 11/03 Q1018
  • 191400Z 12004KT 9999 OVC035 11/03 Q1018

TAF TAF RKTN
Valid from the 19 at 12:00 until the 20 at 18:00 UTC


191100Z 1912/2018 13008KT 9999 BKN030 TN08/1921Z TX24/2006Z
BECMG 1914/1915 SCT040 SCT200
RKRR FIR / Asia



MET'MAP, your aeronautical weather chart ! - Copyright ORBIFLY December 2007 - Disclaimer

ORBIFLY MET'MAP TEAM :

Programming & Development : Alexandra Zaïnal
Concept & Development : Baudouin d'Aumeries
Co-Development & Prog : Marc-Olivier Méhu
Technical & hardware support : Manuel Goepfert

Contact : metmap@orbifly.com




SOURCES & CREDITS :

   NOAA       Earth
Advisory